sensor_id;sensor_type;location;lat;lon;timestamp;P1;durP1;ratioP1;P2;durP2;ratioP2
21158;SDS011;10737;45.436;4.390;2023-10-31T00:04:02;6.00;;;5.47;;
21158;SDS011;10737;45.436;4.390;2023-10-31T00:09:05;5.82;;;5.30;;
21158;SDS011;10737;45.436;4.390;2023-10-31T00:14:10;8.50;;;5.85;;
21158;SDS011;10737;45.436;4.390;2023-10-31T00:19:13;5.40;;;5.00;;
21158;SDS011;10737;45.436;4.390;2023-10-31T00:24:16;5.63;;;5.07;;
21158;SDS011;10737;45.436;4.390;2023-10-31T00:29:21;5.75;;;5.25;;
21158;SDS011;10737;45.436;4.390;2023-10-31T00:34:24;5.53;;;5.22;;
21158;SDS011;10737;45.436;4.390;2023-10-31T00:39:28;5.32;;;4.93;;
21158;SDS011;10737;45.436;4.390;2023-10-31T00:44:33;5.78;;;5.30;;
21158;SDS011;10737;45.436;4.390;2023-10-31T00:49:36;8.63;;;7.78;;
21158;SDS011;10737;45.436;4.390;2023-10-31T00:54:39;4.90;;;4.57;;
21158;SDS011;10737;45.436;4.390;2023-10-31T00:59:44;5.10;;;4.75;;
21158;SDS011;10737;45.436;4.390;2023-10-31T01:04:47;8.98;;;4.65;;
21158;SDS011;10737;45.436;4.390;2023-10-31T01:09:50;4.68;;;4.25;;
21158;SDS011;10737;45.436;4.390;2023-10-31T01:14:55;4.90;;;4.60;;
21158;SDS011;10737;45.436;4.390;2023-10-31T01:19:59;5.38;;;4.95;;
21158;SDS011;10737;45.436;4.390;2023-10-31T01:25:02;4.38;;;4.07;;
21158;SDS011;10737;45.436;4.390;2023-10-31T01:30:07;4.88;;;4.30;;
21158;SDS011;10737;45.436;4.390;2023-10-31T01:35:11;4.60;;;4.30;;
21158;SDS011;10737;45.436;4.390;2023-10-31T01:40:14;5.85;;;4.97;;
21158;SDS011;10737;45.436;4.390;2023-10-31T01:45:19;4.40;;;4.20;;
21158;SDS011;10737;45.436;4.390;2023-10-31T01:50:22;4.70;;;4.43;;
21158;SDS011;10737;45.436;4.390;2023-10-31T01:55:25;4.90;;;4.18;;
21158;SDS011;10737;45.436;4.390;2023-10-31T02:00:32;4.18;;;3.88;;
21158;SDS011;10737;45.436;4.390;2023-10-31T02:05:35;4.70;;;4.30;;
21158;SDS011;10737;45.436;4.390;2023-10-31T02:10:57;6.53;;;4.55;;
21158;SDS011;10737;45.436;4.390;2023-10-31T02:16:02;4.65;;;4.25;;
21158;SDS011;10737;45.436;4.390;2023-10-31T02:21:05;7.15;;;4.10;;
21158;SDS011;10737;45.436;4.390;2023-10-31T02:26:10;4.80;;;4.32;;
21158;SDS011;10737;45.436;4.390;2023-10-31T02:31:13;4.70;;;4.20;;
21158;SDS011;10737;45.436;4.390;2023-10-31T02:36:17;5.15;;;4.65;;
21158;SDS011;10737;45.436;4.390;2023-10-31T02:41:22;4.75;;;4.30;;
21158;SDS011;10737;45.436;4.390;2023-10-31T02:46:25;4.85;;;4.40;;
21158;SDS011;10737;45.436;4.390;2023-10-31T02:51:28;4.63;;;4.28;;
21158;SDS011;10737;45.436;4.390;2023-10-31T02:56:33;4.40;;;4.20;;
21158;SDS011;10737;45.436;4.390;2023-10-31T03:01:36;5.13;;;4.00;;
21158;SDS011;10737;45.436;4.390;2023-10-31T03:06:39;4.70;;;4.38;;
21158;SDS011;10737;45.436;4.390;2023-10-31T03:11:44;4.82;;;4.53;;
21158;SDS011;10737;45.436;4.390;2023-10-31T03:16:47;4.60;;;4.40;;
21158;SDS011;10737;45.436;4.390;2023-10-31T03:21:51;5.13;;;4.63;;
21158;SDS011;10737;45.436;4.390;2023-10-31T03:26:55;4.28;;;3.92;;
21158;SDS011;10737;45.436;4.390;2023-10-31T03:31:59;4.53;;;4.22;;
21158;SDS011;10737;45.436;4.390;2023-10-31T03:37:20;3.78;;;3.67;;
21158;SDS011;10737;45.436;4.390;2023-10-31T03:42:25;4.35;;;3.80;;
21158;SDS011;10737;45.436;4.390;2023-10-31T03:47:30;4.05;;;3.75;;
21158;SDS011;10737;45.436;4.390;2023-10-31T03:52:33;4.45;;;4.25;;
21158;SDS011;10737;45.436;4.390;2023-10-31T03:57:38;4.10;;;3.80;;
21158;SDS011;10737;45.436;4.390;2023-10-31T04:02:41;4.60;;;4.30;;
21158;SDS011;10737;45.436;4.390;2023-10-31T04:07:45;4.57;;;4.38;;
21158;SDS011;10737;45.436;4.390;2023-10-31T04:12:50;4.13;;;3.83;;
21158;SDS011;10737;45.436;4.390;2023-10-31T04:17:53;4.20;;;3.90;;
21158;SDS011;10737;45.436;4.390;2023-10-31T04:22:56;3.97;;;3.83;;
21158;SDS011;10737;45.436;4.390;2023-10-31T04:28:01;4.20;;;4.00;;
21158;SDS011;10737;45.436;4.390;2023-10-31T04:33:04;4.15;;;3.85;;
21158;SDS011;10737;45.436;4.390;2023-10-31T04:38:07;5.47;;;4.00;;
21158;SDS011;10737;45.436;4.390;2023-10-31T04:43:12;3.78;;;3.60;;
21158;SDS011;10737;45.436;4.390;2023-10-31T04:48:15;3.85;;;3.65;;
21158;SDS011;10737;45.436;4.390;2023-10-31T04:53:18;4.18;;;3.80;;
21158;SDS011;10737;45.436;4.390;2023-10-31T04:58:23;3.55;;;3.45;;
21158;SDS011;10737;45.436;4.390;2023-10-31T05:03:26;4.35;;;4.15;;
21158;SDS011;10737;45.436;4.390;2023-10-31T05:08:29;5.45;;;4.13;;
21158;SDS011;10737;45.436;4.390;2023-10-31T05:13:34;3.83;;;3.53;;
21158;SDS011;10737;45.436;4.390;2023-10-31T05:18:37;4.00;;;3.65;;
21158;SDS011;10737;45.436;4.390;2023-10-31T05:23:41;4.32;;;3.97;;
21158;SDS011;10737;45.436;4.390;2023-10-31T05:28:46;3.40;;;3.20;;
21158;SDS011;10737;45.436;4.390;2023-10-31T05:33:49;4.15;;;3.70;;
21158;SDS011;10737;45.436;4.390;2023-10-31T05:38:53;3.90;;;3.80;;
21158;SDS011;10737;45.436;4.390;2023-10-31T05:43:58;3.88;;;3.78;;
21158;SDS011;10737;45.436;4.390;2023-10-31T05:49:01;3.95;;;3.75;;
21158;SDS011;10737;45.436;4.390;2023-10-31T05:54:23;3.95;;;3.75;;
21158;SDS011;10737;45.436;4.390;2023-10-31T05:59:29;4.13;;;3.90;;
21158;SDS011;10737;45.436;4.390;2023-10-31T06:04:51;3.45;;;3.35;;
21158;SDS011;10737;45.436;4.390;2023-10-31T06:09:54;3.58;;;3.47;;
21158;SDS011;10737;45.436;4.390;2023-10-31T06:14:59;3.53;;;3.42;;
21158;SDS011;10737;45.436;4.390;2023-10-31T06:20:02;3.60;;;3.40;;
21158;SDS011;10737;45.436;4.390;2023-10-31T06:25:05;3.70;;;3.50;;
21158;SDS011;10737;45.436;4.390;2023-10-31T06:30:11;3.75;;;3.45;;
21158;SDS011;10737;45.436;4.390;2023-10-31T06:35:17;3.58;;;3.38;;
21158;SDS011;10737;45.436;4.390;2023-10-31T06:40:20;3.30;;;3.20;;
21158;SDS011;10737;45.436;4.390;2023-10-31T06:45:25;4.82;;;3.10;;
21158;SDS011;10737;45.436;4.390;2023-10-31T06:50:28;3.17;;;3.08;;
21158;SDS011;10737;45.436;4.390;2023-10-31T06:55:31;2.80;;;2.60;;
21158;SDS011;10737;45.436;4.390;2023-10-31T07:00:54;3.60;;;3.50;;
21158;SDS011;10737;45.436;4.390;2023-10-31T07:06:01;3.78;;;3.58;;
21158;SDS011;10737;45.436;4.390;2023-10-31T07:11:05;3.30;;;3.10;;
21158;SDS011;10737;45.436;4.390;2023-10-31T07:16:09;4.75;;;4.43;;
21158;SDS011;10737;45.436;4.390;2023-10-31T07:21:12;4.22;;;4.03;;
21158;SDS011;10737;45.436;4.390;2023-10-31T07:26:16;3.30;;;3.20;;
21158;SDS011;10737;45.436;4.390;2023-10-31T07:31:21;3.58;;;3.28;;
21158;SDS011;10737;45.436;4.390;2023-10-31T07:36:24;4.80;;;3.55;;
21158;SDS011;10737;45.436;4.390;2023-10-31T07:41:28;3.60;;;3.40;;
21158;SDS011;10737;45.436;4.390;2023-10-31T07:46:32;3.95;;;3.75;;
21158;SDS011;10737;45.436;4.390;2023-10-31T07:51:36;3.88;;;3.67;;
21158;SDS011;10737;45.436;4.390;2023-10-31T07:56:39;3.72;;;3.53;;
21158;SDS011;10737;45.436;4.390;2023-10-31T08:01:44;4.38;;;4.18;;
21158;SDS011;10737;45.436;4.390;2023-10-31T08:06:47;4.20;;;4.00;;
21158;SDS011;10737;45.436;4.390;2023-10-31T08:11:50;3.50;;;3.40;;
21158;SDS011;10737;45.436;4.390;2023-10-31T08:16:55;3.40;;;3.30;;
21158;SDS011;10737;45.436;4.390;2023-10-31T08:21:58;3.65;;;3.53;;
21158;SDS011;10737;45.436;4.390;2023-10-31T08:27:01;3.20;;;3.00;;
21158;SDS011;10737;45.436;4.390;2023-10-31T08:32:06;4.05;;;3.75;;
21158;SDS011;10737;45.436;4.390;2023-10-31T08:37:09;3.90;;;3.42;;
21158;SDS011;10737;45.436;4.390;2023-10-31T08:42:12;3.22;;;3.03;;
21158;SDS011;10737;45.436;4.390;2023-10-31T08:47:17;3.00;;;2.90;;
21158;SDS011;10737;45.436;4.390;2023-10-31T08:52:20;3.00;;;2.90;;
21158;SDS011;10737;45.436;4.390;2023-10-31T08:57:24;3.65;;;3.45;;
21158;SDS011;10737;45.436;4.390;2023-10-31T09:02:28;3.50;;;2.58;;
21158;SDS011;10737;45.436;4.390;2023-10-31T09:07:32;3.45;;;3.15;;
21158;SDS011;10737;45.436;4.390;2023-10-31T09:12:35;2.55;;;2.45;;
21158;SDS011;10737;45.436;4.390;2023-10-31T09:17:42;3.28;;;2.63;;
21158;SDS011;10737;45.436;4.390;2023-10-31T09:22:45;4.20;;;3.30;;
21158;SDS011;10737;45.436;4.390;2023-10-31T09:27:48;3.78;;;3.00;;
21158;SDS011;10737;45.436;4.390;2023-10-31T09:32:53;4.38;;;4.03;;
21158;SDS011;10737;45.436;4.390;2023-10-31T09:37:56;3.28;;;3.13;;
21158;SDS011;10737;45.436;4.390;2023-10-31T09:42:59;2.92;;;2.70;;
21158;SDS011;10737;45.436;4.390;2023-10-31T09:48:04;3.92;;;3.63;;
21158;SDS011;10737;45.436;4.390;2023-10-31T09:53:08;2.67;;;2.58;;
21158;SDS011;10737;45.436;4.390;2023-10-31T09:58:12;6.18;;;5.55;;
21158;SDS011;10737;45.436;4.390;2023-10-31T10:03:17;15.38;;;11.13;;
21158;SDS011;10737;45.436;4.390;2023-10-31T10:08:20;7.75;;;6.97;;
21158;SDS011;10737;45.436;4.390;2023-10-31T10:13:23;7.68;;;6.55;;
21158;SDS011;10737;45.436;4.390;2023-10-31T10:18:28;11.25;;;9.57;;
21158;SDS011;10737;45.436;4.390;2023-10-31T10:23:32;6.05;;;5.45;;
21158;SDS011;10737;45.436;4.390;2023-10-31T10:28:36;2.65;;;2.55;;
21158;SDS011;10737;45.436;4.390;2023-10-31T10:33:41;3.85;;;3.55;;
21158;SDS011;10737;45.436;4.390;2023-10-31T10:38:44;3.40;;;3.20;;
21158;SDS011;10737;45.436;4.390;2023-10-31T10:43:48;4.10;;;3.67;;
21158;SDS011;10737;45.436;4.390;2023-10-31T10:49:12;2.88;;;2.72;;
21158;SDS011;10737;45.436;4.390;2023-10-31T10:54:18;14.57;;;11.88;;
21158;SDS011;10737;45.436;4.390;2023-10-31T10:59:25;4.53;;;4.15;;
21158;SDS011;10737;45.436;4.390;2023-10-31T11:04:32;6.65;;;6.00;;
21158;SDS011;10737;45.436;4.390;2023-10-31T11:09:35;14.20;;;12.90;;
21158;SDS011;10737;45.436;4.390;2023-10-31T11:14:39;19.10;;;17.10;;
21158;SDS011;10737;45.436;4.390;2023-10-31T11:19:44;33.55;;;15.85;;
21158;SDS011;10737;45.436;4.390;2023-10-31T11:24:48;5.32;;;4.82;;
21158;SDS011;10737;45.436;4.390;2023-10-31T11:29:52;4.32;;;3.97;;
21158;SDS011;10737;45.436;4.390;2023-10-31T11:34:59;6.30;;;5.00;;
21158;SDS011;10737;45.436;4.390;2023-10-31T11:40:15;9.13;;;6.65;;
21158;SDS011;10737;45.436;4.390;2023-10-31T11:45:27;8.32;;;5.07;;
21158;SDS011;10737;45.436;4.390;2023-10-31T11:50:33;10.25;;;9.35;;
21158;SDS011;10737;45.436;4.390;2023-10-31T11:55:39;14.50;;;13.05;;
21158;SDS011;10737;45.436;4.390;2023-10-31T12:00:42;5.88;;;3.80;;
21158;SDS011;10737;45.436;4.390;2023-10-31T12:05:54;11.75;;;8.55;;
21158;SDS011;10737;45.436;4.390;2023-10-31T12:11:07;4.10;;;3.80;;
21158;SDS011;10737;45.436;4.390;2023-10-31T12:16:12;6.97;;;5.82;;
21158;SDS011;10737;45.436;4.390;2023-10-31T12:21:17;6.65;;;6.10;;
21158;SDS011;10737;45.436;4.390;2023-10-31T12:26:20;4.80;;;4.43;;
21158;SDS011;10737;45.436;4.390;2023-10-31T12:31:43;5.45;;;5.05;;
21158;SDS011;10737;45.436;4.390;2023-10-31T12:36:48;6.68;;;6.10;;
21158;SDS011;10737;45.436;4.390;2023-10-31T12:41:52;7.60;;;6.90;;
21158;SDS011;10737;45.436;4.390;2023-10-31T12:46:56;4.20;;;3.80;;
21158;SDS011;10737;45.436;4.390;2023-10-31T12:52:01;2.92;;;2.83;;
21158;SDS011;10737;45.436;4.390;2023-10-31T12:57:06;3.20;;;2.90;;
21158;SDS011;10737;45.436;4.390;2023-10-31T13:02:10;3.60;;;3.30;;
21158;SDS011;10737;45.436;4.390;2023-10-31T13:07:27;3.22;;;2.92;;
21158;SDS011;10737;45.436;4.390;2023-10-31T13:12:30;10.63;;;6.75;;
21158;SDS011;10737;45.436;4.390;2023-10-31T13:17:33;5.00;;;4.50;;
21158;SDS011;10737;45.436;4.390;2023-10-31T13:22:41;7.18;;;6.50;;
21158;SDS011;10737;45.436;4.390;2023-10-31T13:27:44;5.03;;;4.63;;
21158;SDS011;10737;45.436;4.390;2023-10-31T13:32:52;6.78;;;5.35;;
21158;SDS011;10737;45.436;4.390;2023-10-31T13:37:57;3.00;;;2.80;;
21158;SDS011;10737;45.436;4.390;2023-10-31T13:43:00;21.08;;;17.02;;
21158;SDS011;10737;45.436;4.390;2023-10-31T13:48:23;4.97;;;4.13;;
21158;SDS011;10737;45.436;4.390;2023-10-31T13:53:58;6.05;;;4.40;;
21158;SDS011;10737;45.436;4.390;2023-10-31T13:59:02;4.30;;;3.90;;
21158;SDS011;10737;45.436;4.390;2023-10-31T14:04:05;4.03;;;3.40;;
21158;SDS011;10737;45.436;4.390;2023-10-31T14:09:10;5.18;;;2.80;;
21158;SDS011;10737;45.436;4.390;2023-10-31T14:14:14;9.90;;;7.85;;
21158;SDS011;10737;45.436;4.390;2023-10-31T14:19:17;5.82;;;5.22;;
21158;SDS011;10737;45.436;4.390;2023-10-31T14:24:23;6.72;;;4.00;;
21158;SDS011;10737;45.436;4.390;2023-10-31T14:29:26;3.35;;;3.00;;
21158;SDS011;10737;45.436;4.390;2023-10-31T14:34:42;4.70;;;3.05;;
21158;SDS011;10737;45.436;4.390;2023-10-31T14:39:47;33.42;;;25.70;;
21158;SDS011;10737;45.436;4.390;2023-10-31T14:44:50;6.53;;;5.07;;
21158;SDS011;10737;45.436;4.390;2023-10-31T14:49:55;6.95;;;5.80;;
21158;SDS011;10737;45.436;4.390;2023-10-31T14:55:01;8.80;;;7.95;;
21158;SDS011;10737;45.436;4.390;2023-10-31T15:00:04;23.90;;;14.75;;
21158;SDS011;10737;45.436;4.390;2023-10-31T15:05:09;4.80;;;4.40;;
21158;SDS011;10737;45.436;4.390;2023-10-31T15:10:14;5.00;;;3.92;;
21158;SDS011;10737;45.436;4.390;2023-10-31T15:15:18;6.00;;;5.40;;
21158;SDS011;10737;45.436;4.390;2023-10-31T15:20:21;12.18;;;10.35;;
21158;SDS011;10737;45.436;4.390;2023-10-31T15:25:27;7.13;;;5.70;;
21158;SDS011;10737;45.436;4.390;2023-10-31T15:30:48;9.73;;;7.55;;
21158;SDS011;10737;45.436;4.390;2023-10-31T15:35:52;3.55;;;3.25;;
21158;SDS011;10737;45.436;4.390;2023-10-31T15:40:56;11.18;;;6.97;;
21158;SDS011;10737;45.436;4.390;2023-10-31T15:46:04;4.55;;;4.13;;
21158;SDS011;10737;45.436;4.390;2023-10-31T15:51:08;7.13;;;4.20;;
21158;SDS011;10737;45.436;4.390;2023-10-31T15:56:13;6.15;;;5.65;;
21158;SDS011;10737;45.436;4.390;2023-10-31T16:01:16;6.13;;;5.18;;
21158;SDS011;10737;45.436;4.390;2023-10-31T16:06:19;4.80;;;4.05;;
21158;SDS011;10737;45.436;4.390;2023-10-31T16:11:24;6.22;;;4.82;;
21158;SDS011;10737;45.436;4.390;2023-10-31T16:16:27;5.32;;;4.15;;
21158;SDS011;10737;45.436;4.390;2023-10-31T16:21:30;3.95;;;3.65;;
21158;SDS011;10737;45.436;4.390;2023-10-31T16:26:35;6.63;;;4.28;;
21158;SDS011;10737;45.436;4.390;2023-10-31T16:31:39;3.50;;;3.20;;
21158;SDS011;10737;45.436;4.390;2023-10-31T16:36:42;4.97;;;3.95;;
21158;SDS011;10737;45.436;4.390;2023-10-31T16:42:06;11.98;;;8.88;;
21158;SDS011;10737;45.436;4.390;2023-10-31T16:47:09;12.32;;;7.93;;
21158;SDS011;10737;45.436;4.390;2023-10-31T16:52:31;9.93;;;6.78;;
21158;SDS011;10737;45.436;4.390;2023-10-31T16:57:36;6.25;;;5.25;;
21158;SDS011;10737;45.436;4.390;2023-10-31T17:02:40;10.65;;;5.65;;
21158;SDS011;10737;45.436;4.390;2023-10-31T17:07:43;7.43;;;4.78;;
21158;SDS011;10737;45.436;4.390;2023-10-31T17:12:48;11.32;;;9.45;;
21158;SDS011;10737;45.436;4.390;2023-10-31T17:17:52;23.23;;;14.55;;
21158;SDS011;10737;45.436;4.390;2023-10-31T17:22:55;16.67;;;10.85;;
21158;SDS011;10737;45.436;4.390;2023-10-31T17:28:01;15.65;;;11.07;;
21158;SDS011;10737;45.436;4.390;2023-10-31T17:33:04;22.90;;;16.63;;
21158;SDS011;10737;45.436;4.390;2023-10-31T17:38:08;17.77;;;11.43;;
21158;SDS011;10737;45.436;4.390;2023-10-31T17:43:12;32.45;;;25.08;;
21158;SDS011;10737;45.436;4.390;2023-10-31T17:48:15;11.05;;;7.78;;
21158;SDS011;10737;45.436;4.390;2023-10-31T17:53:19;15.48;;;14.07;;
21158;SDS011;10737;45.436;4.390;2023-10-31T17:58:23;57.42;;;43.63;;
21158;SDS011;10737;45.436;4.390;2023-10-31T18:03:27;22.58;;;18.15;;
21158;SDS011;10737;45.436;4.390;2023-10-31T18:08:31;18.40;;;12.82;;
21158;SDS011;10737;45.436;4.390;2023-10-31T18:13:35;21.38;;;17.83;;
21158;SDS011;10737;45.436;4.390;2023-10-31T18:18:39;29.80;;;19.27;;
21158;SDS011;10737;45.436;4.390;2023-10-31T18:23:42;40.00;;;30.52;;
21158;SDS011;10737;45.436;4.390;2023-10-31T18:28:47;27.05;;;21.33;;
21158;SDS011;10737;45.436;4.390;2023-10-31T18:33:54;24.58;;;19.25;;
21158;SDS011;10737;45.436;4.390;2023-10-31T18:38:58;25.55;;;19.23;;
21158;SDS011;10737;45.436;4.390;2023-10-31T18:44:05;26.70;;;17.83;;
21158;SDS011;10737;45.436;4.390;2023-10-31T18:49:09;12.40;;;8.45;;
21158;SDS011;10737;45.436;4.390;2023-10-31T18:54:13;15.68;;;12.32;;
21158;SDS011;10737;45.436;4.390;2023-10-31T18:59:17;16.48;;;10.85;;
21158;SDS011;10737;45.436;4.390;2023-10-31T19:04:21;15.52;;;12.32;;
21158;SDS011;10737;45.436;4.390;2023-10-31T19:09:25;44.20;;;32.53;;
21158;SDS011;10737;45.436;4.390;2023-10-31T19:14:30;22.27;;;15.35;;
21158;SDS011;10737;45.436;4.390;2023-10-31T19:19:33;20.48;;;16.98;;
21158;SDS011;10737;45.436;4.390;2023-10-31T19:24:37;79.47;;;62.33;;
21158;SDS011;10737;45.436;4.390;2023-10-31T19:29:41;110.35;;;98.68;;
21158;SDS011;10737;45.436;4.390;2023-10-31T19:34:46;50.20;;;45.58;;
21158;SDS011;10737;45.436;4.390;2023-10-31T19:39:49;64.07;;;58.20;;
21158;SDS011;10737;45.436;4.390;2023-10-31T19:44:54;58.65;;;46.90;;
21158;SDS011;10737;45.436;4.390;2023-10-31T19:49:57;37.63;;;28.65;;
21158;SDS011;10737;45.436;4.390;2023-10-31T19:55:14;16.65;;;14.05;;
21158;SDS011;10737;45.436;4.390;2023-10-31T20:00:21;27.48;;;19.77;;
21158;SDS011;10737;45.436;4.390;2023-10-31T20:05:27;16.38;;;14.85;;
21158;SDS011;10737;45.436;4.390;2023-10-31T20:10:30;20.20;;;16.48;;
21158;SDS011;10737;45.436;4.390;2023-10-31T20:15:35;47.13;;;42.08;;
21158;SDS011;10737;45.436;4.390;2023-10-31T20:20:38;23.00;;;19.98;;
21158;SDS011;10737;45.436;4.390;2023-10-31T20:25:42;17.50;;;14.30;;
21158;SDS011;10737;45.436;4.390;2023-10-31T20:30:48;59.03;;;39.08;;
21158;SDS011;10737;45.436;4.390;2023-10-31T20:36:10;49.97;;;34.08;;
21158;SDS011;10737;45.436;4.390;2023-10-31T20:41:15;32.38;;;22.80;;
21158;SDS011;10737;45.436;4.390;2023-10-31T20:46:20;80.13;;;59.75;;
21158;SDS011;10737;45.436;4.390;2023-10-31T20:51:23;51.35;;;33.67;;
21158;SDS011;10737;45.436;4.390;2023-10-31T20:56:27;18.17;;;12.77;;
21158;SDS011;10737;45.436;4.390;2023-10-31T21:01:32;29.17;;;18.98;;
21158;SDS011;10737;45.436;4.390;2023-10-31T21:06:36;19.98;;;13.30;;
21158;SDS011;10737;45.436;4.390;2023-10-31T21:11:40;127.00;;;94.97;;
21158;SDS011;10737;45.436;4.390;2023-10-31T21:16:45;78.15;;;56.55;;
21158;SDS011;10737;45.436;4.390;2023-10-31T21:21:48;41.17;;;31.08;;
21158;SDS011;10737;45.436;4.390;2023-10-31T21:26:53;18.30;;;15.27;;
21158;SDS011;10737;45.436;4.390;2023-10-31T21:31:58;51.97;;;37.40;;
21158;SDS011;10737;45.436;4.390;2023-10-31T21:37:02;20.95;;;17.80;;
21158;SDS011;10737;45.436;4.390;2023-10-31T21:42:06;24.13;;;18.63;;
21158;SDS011;10737;45.436;4.390;2023-10-31T21:47:11;52.00;;;38.30;;
21158;SDS011;10737;45.436;4.390;2023-10-31T21:52:14;23.63;;;18.23;;
21158;SDS011;10737;45.436;4.390;2023-10-31T21:57:19;66.25;;;47.13;;
21158;SDS011;10737;45.436;4.390;2023-10-31T22:02:24;43.25;;;30.77;;
21158;SDS011;10737;45.436;4.390;2023-10-31T22:07:27;24.92;;;19.98;;
21158;SDS011;10737;45.436;4.390;2023-10-31T22:12:31;31.23;;;23.48;;
21158;SDS011;10737;45.436;4.390;2023-10-31T22:17:36;35.30;;;28.02;;
21158;SDS011;10737;45.436;4.390;2023-10-31T22:22:40;52.35;;;35.85;;
21158;SDS011;10737;45.436;4.390;2023-10-31T22:27:43;47.35;;;34.28;;
21158;SDS011;10737;45.436;4.390;2023-10-31T22:32:48;58.78;;;38.03;;
21158;SDS011;10737;45.436;4.390;2023-10-31T22:38:09;96.63;;;68.05;;
21158;SDS011;10737;45.436;4.390;2023-10-31T22:43:13;21.92;;;16.95;;
21158;SDS011;10737;45.436;4.390;2023-10-31T22:48:20;64.53;;;44.72;;
21158;SDS011;10737;45.436;4.390;2023-10-31T22:53:42;74.47;;;50.13;;
21158;SDS011;10737;45.436;4.390;2023-10-31T22:58:46;47.05;;;29.02;;
21158;SDS011;10737;45.436;4.390;2023-10-31T23:03:50;24.17;;;18.38;;
21158;SDS011;10737;45.436;4.390;2023-10-31T23:08:54;32.15;;;21.55;;
21158;SDS011;10737;45.436;4.390;2023-10-31T23:13:59;48.90;;;35.20;;
21158;SDS011;10737;45.436;4.390;2023-10-31T23:19:04;68.93;;;48.17;;
21158;SDS011;10737;45.436;4.390;2023-10-31T23:24:08;24.55;;;19.13;;
21158;SDS011;10737;45.436;4.390;2023-10-31T23:29:13;31.85;;;24.70;;
21158;SDS011;10737;45.436;4.390;2023-10-31T23:34:18;27.70;;;19.67;;
21158;SDS011;10737;45.436;4.390;2023-10-31T23:39:24;102.78;;;69.97;;
21158;SDS011;10737;45.436;4.390;2023-10-31T23:44:28;18.70;;;15.27;;
21158;SDS011;10737;45.436;4.390;2023-10-31T23:49:32;68.53;;;47.88;;
21158;SDS011;10737;45.436;4.390;2023-10-31T23:54:36;52.78;;;41.10;;
21158;SDS011;10737;45.436;4.390;2023-10-31T23:59:39;70.68;;;47.83;;
